createdAt,value
2019-05-02T00:02:14.662Z,12.33
2019-05-02T00:04:44.959Z,12.31
2019-05-02T00:07:20.132Z,12.64
2019-05-02T00:09:48.342Z,12.55
2019-05-02T00:12:20.800Z,12.47
2019-05-02T00:14:51.035Z,12.65
2019-05-02T00:17:25.780Z,12.40
2019-05-02T00:19:54.769Z,12.38
2019-05-02T00:22:24.813Z,12.50
2019-05-02T00:24:54.896Z,12.20
2019-05-02T00:27:24.902Z,12.09
2019-05-02T00:29:58.854Z,12.13
2019-05-02T00:32:26.723Z,12.14
2019-05-02T00:34:56.762Z,11.70
2019-05-02T00:37:26.883Z,11.87
2019-05-02T00:39:56.794Z,11.95
2019-05-02T00:42:26.756Z,11.74
2019-05-02T00:44:56.694Z,12.02
2019-05-02T00:47:49.624Z,12.16
2019-05-02T00:50:19.321Z,12.00
2019-05-02T00:52:49.295Z,12.29
2019-05-02T00:55:19.306Z,12.16
2019-05-02T00:57:50.847Z,12.06
2019-05-02T01:00:21.221Z,11.90
2019-05-02T01:02:56.133Z,12.05
2019-05-02T01:05:26.213Z,11.72
2019-05-02T01:08:00.769Z,11.77
2019-05-02T01:10:28.039Z,11.75
2019-05-02T01:12:57.961Z,11.95
2019-05-02T01:15:27.952Z,11.52
2019-05-02T01:18:01.170Z,11.78
2019-05-02T01:20:29.498Z,11.78
2019-05-02T01:22:59.402Z,12.02
2019-05-02T01:25:29.495Z,11.78
2019-05-02T01:28:27.399Z,11.94
2019-05-02T01:31:08.198Z,11.59
2019-05-02T01:33:47.633Z,11.96
2019-05-02T01:36:21.514Z,12.14
2019-05-02T01:38:51.595Z,11.68
2019-05-02T01:41:24.109Z,11.33
2019-05-02T01:43:54.858Z,11.52
2019-05-02T01:46:24.833Z,11.66
2019-05-02T01:48:54.774Z,11.62
2019-05-02T01:51:24.718Z,12.04
2019-05-02T01:53:54.605Z,12.05
2019-05-02T01:56:28.452Z,11.49
2019-05-02T01:58:57.701Z,11.31
2019-05-02T02:01:28.223Z,11.41
2019-05-02T02:03:58.178Z,10.97
2019-05-02T02:06:28.177Z,11.38
2019-05-02T02:08:58.190Z,11.42
2019-05-02T02:11:33.269Z,11.15
2019-05-02T02:13:59.803Z,11.34
2019-05-02T02:16:29.700Z,11.36
2019-05-02T02:19:06.285Z,11.00
2019-05-02T02:21:46.026Z,11.40
2019-05-02T02:24:21.202Z,10.95
2019-05-02T02:26:52.334Z,11.41
2019-05-02T02:29:22.262Z,11.53
2019-05-02T02:31:52.192Z,11.34
2019-05-02T02:34:29.420Z,11.37
2019-05-02T02:36:54.182Z,11.48
2019-05-02T02:39:24.126Z,12.01
2019-05-02T02:41:54.349Z,11.36
2019-05-02T02:44:39.825Z,11.32
2019-05-02T02:47:11.978Z,11.70
2019-05-02T02:49:38.692Z,11.89
2019-05-02T02:52:08.685Z,10.96
2019-05-02T02:54:43.403Z,11.00
2019-05-02T02:57:20.082Z,11.12
2019-05-02T02:59:42.351Z,10.96
2019-05-02T03:02:12.577Z,11.21
2019-05-02T03:04:44.695Z,11.18
2019-05-02T03:07:24.121Z,11.77
2019-05-02T03:09:46.259Z,11.46
2019-05-02T03:12:36.097Z,11.29
2019-05-02T03:15:08.901Z,11.39
2019-05-02T03:17:38.839Z,11.35
2019-05-02T03:20:09.066Z,11.04
2019-05-02T03:22:41.933Z,11.26
2019-05-02T03:25:11.449Z,10.69
2019-05-02T03:27:41.594Z,11.13
2019-05-02T03:30:29.354Z,11.19
2019-05-02T03:33:03.553Z,11.37
2019-05-02T03:35:18.949Z,11.25
2019-05-02T03:37:51.407Z,11.33
2019-05-02T03:40:18.670Z,11.17
2019-05-02T03:42:48.790Z,11.24
2019-05-02T03:45:18.722Z,11.17
2019-05-02T03:47:49.447Z,11.48
2019-05-02T03:50:30.682Z,11.68
2019-05-02T03:52:51.208Z,11.53
2019-05-02T03:55:23.675Z,11.97
2019-05-02T03:57:54.075Z,12.11
2019-05-02T04:00:24.587Z,11.95
2019-05-02T04:03:00.321Z,11.79
2019-05-02T04:05:27.190Z,11.59
2019-05-02T04:07:57.262Z,11.93
2019-05-02T04:11:25.017Z,11.22
2019-05-02T04:13:57.109Z,11.43
2019-05-02T04:16:30.041Z,11.14
2019-05-02T04:19:07.326Z,10.92
2019-05-02T04:21:37.660Z,11.16
2019-05-02T04:24:13.312Z,11.36
2019-05-02T04:26:52.590Z,11.15
2019-05-02T04:29:12.339Z,11.55
2019-05-02T04:31:42.437Z,11.57
2019-05-02T04:34:15.315Z,11.48
2019-05-02T04:36:53.405Z,11.29
2019-05-02T04:39:21.679Z,11.37
2019-05-02T04:41:50.273Z,11.56
2019-05-02T04:44:20.659Z,11.44
2019-05-02T04:46:51.354Z,11.13
2019-05-02T04:49:32.913Z,11.10
2019-05-02T04:52:01.838Z,11.47
2019-05-02T04:54:29.079Z,11.44
2019-05-02T04:56:58.996Z,11.69
2019-05-02T04:59:28.883Z,11.63
2019-05-02T05:02:01.336Z,11.46
2019-05-02T05:04:33.066Z,11.65
2019-05-02T05:07:03.289Z,12.01
2019-05-02T05:09:33.597Z,12.19
2019-05-02T05:12:03.674Z,11.85
2019-05-02T05:14:41.269Z,11.29
2019-05-02T05:17:05.370Z,11.59
2019-05-02T05:19:37.338Z,11.34
2019-05-02T05:22:11.662Z,11.53
2019-05-02T05:24:53.930Z,11.18
2019-05-02T05:27:24.298Z,11.39
2019-05-02T05:29:59.504Z,12.03
2019-05-02T05:32:28.064Z,11.50
2019-05-02T05:35:03.271Z,11.72
2019-05-02T05:37:30.662Z,11.14
2019-05-02T05:40:00.602Z,11.23
2019-05-02T05:42:33.343Z,11.39
2019-05-02T05:45:03.803Z,11.51
2019-05-02T05:47:33.804Z,11.76
2019-05-02T05:50:03.951Z,11.45
2019-05-02T05:52:38.688Z,11.58
2019-05-02T05:55:07.664Z,11.73
2019-05-02T05:57:38.470Z,11.86
2019-05-02T06:00:15.564Z,12.21
2019-05-02T06:02:53.242Z,11.74
2019-05-02T06:05:12.672Z,11.86
2019-05-02T06:07:44.953Z,11.60
2019-05-02T06:10:14.338Z,12.20
2019-05-02T06:12:44.258Z,12.59
2019-05-02T06:15:14.681Z,12.62
2019-05-02T06:17:44.635Z,12.42
2019-05-02T06:20:15.621Z,12.80
2019-05-02T06:22:45.632Z,12.24
2019-05-02T06:25:17.182Z,12.92
2019-05-02T06:27:47.185Z,12.06
2019-05-02T06:30:17.631Z,11.79
2019-05-02T06:32:50.032Z,11.32
2019-05-02T06:35:21.264Z,12.83
2019-05-02T06:37:51.952Z,13.13
2019-05-02T06:40:22.194Z,13.31
2019-05-02T06:42:52.109Z,13.29
2019-05-02T06:45:22.309Z,12.69
2019-05-02T06:47:52.253Z,13.30
2019-05-02T06:50:24.750Z,13.38
2019-05-02T06:52:53.995Z,13.38
2019-05-02T06:55:28.133Z,12.82
2019-05-02T06:57:56.996Z,12.55
2019-05-02T07:00:35.701Z,12.67
2019-05-02T07:02:58.961Z,12.38
2019-05-02T07:05:28.906Z,12.87
2019-05-02T07:07:58.907Z,12.87
2019-05-02T07:10:37.858Z,11.34
2019-05-02T07:13:10.077Z,11.95
2019-05-02T07:15:42.977Z,12.83
2019-05-02T07:18:14.827Z,12.89
2019-05-02T07:20:44.888Z,13.23
2019-05-02T07:23:16.303Z,13.36
2019-05-02T07:25:46.610Z,13.64
2019-05-02T07:28:16.787Z,13.56
2019-05-02T07:30:47.055Z,13.30
2019-05-02T07:33:17.619Z,13.21
2019-05-02T07:35:47.860Z,13.03
2019-05-02T07:38:20.117Z,13.59
2019-05-02T07:40:52.989Z,12.04
2019-05-02T07:43:22.488Z,12.59
2019-05-02T07:45:52.712Z,13.02
2019-05-02T07:48:23.050Z,13.09
2019-05-02T07:50:53.544Z,13.29
2019-05-02T07:53:24.057Z,13.44
2019-05-02T07:55:54.214Z,12.91
2019-05-02T07:58:24.252Z,12.86
2019-05-02T08:00:54.146Z,12.91
2019-05-02T08:03:24.348Z,13.47
2019-05-02T08:05:58.154Z,13.77
2019-05-02T08:08:29.857Z,13.48
2019-05-02T08:11:01.877Z,13.67
2019-05-02T08:13:31.433Z,13.49
2019-05-02T08:16:01.629Z,13.45
2019-05-02T08:18:31.774Z,13.93
2019-05-02T08:21:01.756Z,14.03
2019-05-02T08:23:31.822Z,13.64
2019-05-02T08:26:01.741Z,13.44
2019-05-02T08:28:41.305Z,13.56
2019-05-02T08:31:13.508Z,13.72
2019-05-02T08:33:44.450Z,13.50
2019-05-02T08:36:14.444Z,13.40
2019-05-02T08:38:44.420Z,13.54
2019-05-02T08:41:20.069Z,13.86
2019-05-02T08:43:46.656Z,13.55
2019-05-02T08:46:17.457Z,13.89
2019-05-02T08:48:47.530Z,13.65
2019-05-02T08:51:17.857Z,13.04
2019-05-02T08:53:51.925Z,13.80
2019-05-02T08:56:21.290Z,13.68
2019-05-02T08:58:51.489Z,14.28
2019-05-02T09:01:33.994Z,13.98
2019-05-02T09:03:56.560Z,13.01
2019-05-02T09:06:24.641Z,13.43
2019-05-02T09:08:54.558Z,13.54
2019-05-02T09:11:24.671Z,13.76
2019-05-02T09:13:54.637Z,13.79
2019-05-02T09:16:28.750Z,13.72
2019-05-02T09:18:56.815Z,13.94
2019-05-02T09:21:31.458Z,14.53
2019-05-02T09:23:58.671Z,14.23
2019-05-02T09:26:36.061Z,14.41
2019-05-02T09:29:05.119Z,13.96
2019-05-02T09:31:36.690Z,14.64
2019-05-02T09:34:04.459Z,14.74
2019-05-02T09:36:34.394Z,13.42
2019-05-02T09:39:06.652Z,13.01
2019-05-02T09:41:36.605Z,13.20
2019-05-02T09:44:08.882Z,13.87
2019-05-02T09:46:38.636Z,14.21
2019-05-02T09:49:13.454Z,14.57
2019-05-02T09:51:42.018Z,14.81
2019-05-02T09:54:12.139Z,13.24
2019-05-02T09:56:43.092Z,13.34
2019-05-02T09:59:26.642Z,14.06
2019-05-02T10:01:44.734Z,13.29
2019-05-02T10:04:14.739Z,13.21
2019-05-02T10:06:45.121Z,13.38
2019-05-02T10:09:18.756Z,14.57
2019-05-02T10:11:48.182Z,14.93
2019-05-02T10:14:18.172Z,15.02
2019-05-02T10:16:48.159Z,15.13
2019-05-02T10:19:18.474Z,14.23
2019-05-02T10:21:52.561Z,13.44
2019-05-02T10:24:22.057Z,14.38
2019-05-02T10:26:55.327Z,12.74
2019-05-02T10:29:28.389Z,14.17
2019-05-02T10:31:55.341Z,14.53
2019-05-02T10:34:25.278Z,14.66
2019-05-02T10:36:58.946Z,14.23
2019-05-02T10:39:28.462Z,15.05
2019-05-02T10:41:58.588Z,14.96
2019-05-02T10:44:32.828Z,15.19
2019-05-02T10:47:00.211Z,15.09
2019-05-02T10:49:35.798Z,15.17
2019-05-02T10:52:05.904Z,13.79
2019-05-02T10:54:37.548Z,14.71
2019-05-02T10:57:07.697Z,14.48
2019-05-02T10:59:37.717Z,14.37
2019-05-02T11:02:25.375Z,14.70
2019-05-02T11:04:59.333Z,14.30
2019-05-02T11:07:29.500Z,14.41
2019-05-02T11:10:03.078Z,13.89
2019-05-02T11:12:44.153Z,14.51
2019-05-02T11:15:47.540Z,14.55
2019-05-02T11:18:22.207Z,14.17
2019-05-02T11:20:52.929Z,14.74
2019-05-02T11:23:24.539Z,14.10
2019-05-02T11:25:54.851Z,14.10
2019-05-02T11:28:24.811Z,14.98
2019-05-02T11:30:56.946Z,14.82
2019-05-02T11:33:32.553Z,14.55
2019-05-02T11:36:02.657Z,14.85
2019-05-02T11:38:32.867Z,15.41
2019-05-02T11:41:02.960Z,13.94
2019-05-02T11:43:37.010Z,13.76
2019-05-02T11:46:07.223Z,13.69
2019-05-02T11:48:36.562Z,14.37
2019-05-02T11:51:07.296Z,14.55
2019-05-02T11:53:38.153Z,14.63
2019-05-02T11:56:10.926Z,14.27
2019-05-02T11:58:40.851Z,14.25
2019-05-02T12:01:14.302Z,14.65
2019-05-02T12:03:52.486Z,15.28
2019-05-02T12:06:22.713Z,15.65
2019-05-02T12:08:52.838Z,15.60
2019-05-02T12:11:23.160Z,15.73
2019-05-02T12:13:56.988Z,14.09
2019-05-02T12:16:24.787Z,14.84
2019-05-02T12:19:07.909Z,14.43
2019-05-02T12:21:28.681Z,14.80
2019-05-02T12:23:58.567Z,14.98
2019-05-02T12:26:28.812Z,15.29
2019-05-02T12:28:59.185Z,14.86
2019-05-02T12:31:32.375Z,14.10
2019-05-02T12:34:05.248Z,14.41
2019-05-02T12:36:35.241Z,15.10
2019-05-02T12:39:07.845Z,13.79
2019-05-02T12:41:37.858Z,14.86
2019-05-02T12:44:08.003Z,14.86
2019-05-02T12:46:37.967Z,14.82
2019-05-02T12:49:08.057Z,14.84
2019-05-02T12:51:38.082Z,14.36
2019-05-02T12:54:08.107Z,15.25
2019-05-02T12:56:38.113Z,15.24
2019-05-02T12:59:08.100Z,15.12
2019-05-02T13:01:38.081Z,15.46
2019-05-02T13:04:09.994Z,14.96
2019-05-02T13:06:42.002Z,15.41
2019-05-02T13:09:12.922Z,15.12
2019-05-02T13:11:54.663Z,14.09
2019-05-02T13:14:27.253Z,15.06
2019-05-02T13:17:01.413Z,15.21
2019-05-02T13:19:38.007Z,15.93
2019-05-02T13:22:13.612Z,15.99
2019-05-02T13:24:47.094Z,15.97
2019-05-02T13:27:18.520Z,15.27
2019-05-02T13:29:49.849Z,15.83
2019-05-02T13:32:28.342Z,15.77
2019-05-02T13:35:04.790Z,15.41
2019-05-02T13:37:34.770Z,15.57
2019-05-02T13:40:11.825Z,14.80
2019-05-02T13:42:41.910Z,15.76
2019-05-02T13:45:23.520Z,15.59
2019-05-02T13:47:53.672Z,15.78
2019-05-02T13:50:23.703Z,15.92
2019-05-02T13:52:57.938Z,15.24
2019-05-02T13:55:31.759Z,15.72
2019-05-02T13:58:02.289Z,15.93
2019-05-02T14:00:38.995Z,15.93
2019-05-02T14:03:08.958Z,15.97
2019-05-02T14:05:42.007Z,15.80
2019-05-02T14:08:27.499Z,16.25
2019-05-02T14:11:01.900Z,16.50
2019-05-02T14:13:31.867Z,15.10
2019-05-02T14:16:02.351Z,14.16
2019-05-02T14:18:33.577Z,15.56
2019-05-02T14:21:03.767Z,16.00
2019-05-02T14:23:33.767Z,15.18
2019-05-02T14:26:03.795Z,15.55
2019-05-02T14:28:36.238Z,16.21
2019-05-02T14:31:05.884Z,16.13
2019-05-02T14:33:37.558Z,15.69
2019-05-02T14:36:07.566Z,15.36
2019-05-02T14:38:37.539Z,15.26
2019-05-02T14:41:12.589Z,15.71
2019-05-02T14:43:53.569Z,16.31
2019-05-02T14:46:33.253Z,16.61
2019-05-02T14:48:59.209Z,15.05
2019-05-02T14:51:29.215Z,15.52
2019-05-02T14:54:03.660Z,16.65
2019-05-02T14:56:58.860Z,16.49
2019-05-02T14:59:29.082Z,16.07
2019-05-02T15:02:03.834Z,15.57
2019-05-02T15:04:33.190Z,15.14
2019-05-02T15:07:04.747Z,16.05
2019-05-02T15:09:36.393Z,15.90
2019-05-02T15:12:13.547Z,16.20
2019-05-02T15:14:38.521Z,16.04
2019-05-02T15:17:08.779Z,16.35
2019-05-02T15:19:38.709Z,15.75
2019-05-02T15:22:08.699Z,15.18
2019-05-02T15:24:38.646Z,16.66
2019-05-02T15:27:17.293Z,15.83
2019-05-02T15:29:42.000Z,15.83
2019-05-02T15:32:29.562Z,15.83
2019-05-02T15:35:23.059Z,15.51
2019-05-02T15:37:56.606Z,15.91
2019-05-02T15:40:43.264Z,15.63
2019-05-02T15:43:03.602Z,16.12
2019-05-02T15:45:36.638Z,16.06
2019-05-02T15:48:04.996Z,14.96
2019-05-02T15:50:35.276Z,15.17
2019-05-02T15:53:14.511Z,16.22
2019-05-02T15:55:44.578Z,16.07
2019-05-02T15:58:26.021Z,16.36
2019-05-02T16:01:01.669Z,16.88
2019-05-02T16:03:46.649Z,16.62
2019-05-02T16:06:21.815Z,15.63
2019-05-02T16:08:49.510Z,15.86
2019-05-02T16:11:19.938Z,16.66
2019-05-02T16:13:55.508Z,15.17
2019-05-02T16:16:23.439Z,16.52
2019-05-02T16:18:53.350Z,16.19
2019-05-02T16:21:32.710Z,15.88
2019-05-02T16:24:22.945Z,16.42
2019-05-02T16:26:56.950Z,16.27
2019-05-02T16:29:28.419Z,16.49
2019-05-02T16:32:13.315Z,16.66
2019-05-02T16:35:15.298Z,16.51
2019-05-02T16:37:41.979Z,16.60
2019-05-02T16:40:12.530Z,16.51
2019-05-02T16:42:42.772Z,16.64
2019-05-02T16:45:13.234Z,16.68
2019-05-02T16:47:43.190Z,15.15
2019-05-02T16:50:13.694Z,15.38
2019-05-02T16:52:47.193Z,16.23
2019-05-02T16:55:21.273Z,16.55
2019-05-02T16:57:47.790Z,15.18
2019-05-02T17:00:22.663Z,15.84
2019-05-02T17:02:52.684Z,16.49
2019-05-02T17:05:22.643Z,16.56
2019-05-02T17:08:18.792Z,16.50
2019-05-02T17:11:15.591Z,15.58
2019-05-02T17:13:45.063Z,15.41
2019-05-02T17:16:17.116Z,14.88
2019-05-02T17:18:48.281Z,14.54
2019-05-02T17:21:18.171Z,14.72
2019-05-02T17:23:49.829Z,15.32
2019-05-02T17:26:19.816Z,15.93
2019-05-02T17:28:51.628Z,15.98
2019-05-02T17:31:23.029Z,14.97
2019-05-02T17:33:54.957Z,15.08
2019-05-02T17:36:28.511Z,14.97
2019-05-02T17:38:59.323Z,15.19
2019-05-02T17:41:27.906Z,14.75
2019-05-02T17:43:59.146Z,16.02
2019-05-02T17:46:29.087Z,15.93
2019-05-02T17:48:59.044Z,15.42
2019-05-02T17:51:37.841Z,15.51
2019-05-02T17:54:08.694Z,15.41
2019-05-02T17:56:39.131Z,15.85
2019-05-02T17:59:13.029Z,16.10
2019-05-02T18:01:43.970Z,14.52
2019-05-02T18:04:16.452Z,15.70
2019-05-02T18:06:52.335Z,16.22
2019-05-02T18:09:21.662Z,15.65
2019-05-02T18:11:51.805Z,15.92
2019-05-02T18:14:24.057Z,15.88
2019-05-02T18:16:55.557Z,14.96
2019-05-02T18:19:25.409Z,15.03
2019-05-02T18:21:58.085Z,15.14
2019-05-02T18:24:27.407Z,15.42
2019-05-02T18:26:57.578Z,15.52
2019-05-02T18:29:27.448Z,15.33
2019-05-02T18:31:57.346Z,15.69
2019-05-02T18:34:27.230Z,15.50
2019-05-02T18:37:01.944Z,14.72
2019-05-02T18:39:29.157Z,15.62
2019-05-02T18:41:59.107Z,15.61
2019-05-02T18:44:29.039Z,16.25
2019-05-02T18:46:59.088Z,16.30
2019-05-02T18:49:29.439Z,16.36
2019-05-02T18:52:01.625Z,16.05
2019-05-02T18:54:31.458Z,15.40
2019-05-02T18:57:02.496Z,15.60
2019-05-02T18:59:32.676Z,14.92
2019-05-02T19:02:02.675Z,14.46
2019-05-02T19:04:38.053Z,14.65
2019-05-02T19:07:07.522Z,14.99
2019-05-02T19:09:48.190Z,15.43
2019-05-02T19:12:13.556Z,14.42
2019-05-02T19:14:41.875Z,14.38
2019-05-02T19:17:12.250Z,14.82
2019-05-02T19:19:44.159Z,14.28
2019-05-02T19:22:16.997Z,15.78
2019-05-02T19:24:46.366Z,15.56
2019-05-02T19:27:21.008Z,15.96
2019-05-02T19:29:51.719Z,15.88
2019-05-02T19:32:25.339Z,15.29
2019-05-02T19:34:57.804Z,14.89
2019-05-02T19:37:25.249Z,16.04
2019-05-02T19:39:56.794Z,16.18
2019-05-02T19:42:26.764Z,15.95
2019-05-02T19:45:01.051Z,16.22
2019-05-02T19:47:28.574Z,14.57
2019-05-02T19:49:59.802Z,15.35
2019-05-02T19:52:38.795Z,15.61
2019-05-02T19:55:01.350Z,14.81
2019-05-02T19:57:32.401Z,14.99
2019-05-02T20:00:06.558Z,15.86
2019-05-02T20:02:37.454Z,15.95
2019-05-02T20:05:09.238Z,15.59
2019-05-02T20:07:40.334Z,15.97
2019-05-02T20:10:12.265Z,15.66
2019-05-02T20:12:48.215Z,15.40
2019-05-02T20:15:22.793Z,15.59
2019-05-02T20:17:55.316Z,15.30
2019-05-02T20:21:22.992Z,15.24
2019-05-02T20:23:44.318Z,15.24
2019-05-02T20:26:15.197Z,14.43
2019-05-02T20:28:46.096Z,14.11
2019-05-02T20:31:16.703Z,14.11
2019-05-02T20:33:47.933Z,14.25
2019-05-02T20:36:18.069Z,14.38
2019-05-02T20:38:48.031Z,14.72
2019-05-02T20:41:18.817Z,14.17
2019-05-02T20:43:51.663Z,14.33
2019-05-02T20:46:22.046Z,14.27
2019-05-02T20:48:53.461Z,13.97
2019-05-02T20:51:23.468Z,14.01
2019-05-02T20:53:54.859Z,14.06
2019-05-02T20:56:24.822Z,13.93
2019-05-02T20:58:55.411Z,13.89
2019-05-02T21:01:25.474Z,14.11
2019-05-02T21:03:56.163Z,13.53
2019-05-02T21:06:41.133Z,13.50
2019-05-02T21:09:38.600Z,13.77
2019-05-02T21:12:08.608Z,14.13
2019-05-02T21:14:39.116Z,13.73
2019-05-02T21:17:09.525Z,13.86
2019-05-02T21:19:41.761Z,13.90
2019-05-02T21:22:22.203Z,13.83
2019-05-02T21:24:52.836Z,13.86
2019-05-02T21:27:22.914Z,13.94
2019-05-02T21:29:52.832Z,14.09
2019-05-02T21:32:23.061Z,13.80
2019-05-02T21:34:53.109Z,13.36
2019-05-02T21:37:23.014Z,13.48
2019-05-02T21:39:52.901Z,12.92
2019-05-02T21:42:22.816Z,12.83
2019-05-02T21:44:52.776Z,13.35
2019-05-02T21:47:22.750Z,12.93
2019-05-02T21:50:02.154Z,13.44
2019-05-02T21:52:37.551Z,13.16
2019-05-02T21:55:15.349Z,13.32
2019-05-02T21:57:45.223Z,13.25
2019-05-02T22:00:42.038Z,13.02
2019-05-02T22:03:12.610Z,13.13
2019-05-02T22:05:42.785Z,13.86
2019-05-02T22:08:13.040Z,13.57
2019-05-02T22:10:43.008Z,13.67
2019-05-02T22:13:13.032Z,13.67
2019-05-02T22:15:42.931Z,13.67
2019-05-02T22:18:12.915Z,13.38
2019-05-02T22:20:42.873Z,13.06
2019-05-02T22:23:13.807Z,13.66
2019-05-02T22:25:43.741Z,13.29
2019-05-02T22:28:13.641Z,13.33
2019-05-02T22:30:43.518Z,13.32
2019-05-02T22:33:13.439Z,13.26
2019-05-02T22:35:43.459Z,13.43
2019-05-02T22:38:31.793Z,12.59
2019-05-02T22:41:03.597Z,12.75
2019-05-02T22:43:33.561Z,12.82
2019-05-02T22:46:06.391Z,13.08
2019-05-02T22:48:36.372Z,12.79
2019-05-02T22:51:06.245Z,13.00
2019-05-02T22:53:36.128Z,13.22
2019-05-02T22:56:06.065Z,12.71
2019-05-02T22:58:35.966Z,12.95
2019-05-02T23:01:06.592Z,13.13
2019-05-02T23:03:36.468Z,12.86
2019-05-02T23:06:06.501Z,12.66
2019-05-02T23:08:36.378Z,12.55
2019-05-02T23:11:06.314Z,12.71
2019-05-02T23:13:36.183Z,12.48
2019-05-02T23:16:06.114Z,12.92
2019-05-02T23:18:35.995Z,13.17
2019-05-02T23:21:05.942Z,12.47
2019-05-02T23:23:35.814Z,12.74
2019-05-02T23:26:31.754Z,12.36
2019-05-02T23:29:02.401Z,12.47
2019-05-02T23:31:32.247Z,12.34
2019-05-02T23:34:02.290Z,12.28
2019-05-02T23:36:33.024Z,12.55
2019-05-02T23:39:04.638Z,12.41
2019-05-02T23:41:34.558Z,12.67
2019-05-02T23:44:04.593Z,12.19
2019-05-02T23:46:34.489Z,12.32
2019-05-02T23:49:04.514Z,11.93
2019-05-02T23:51:34.413Z,11.85
2019-05-02T23:54:04.369Z,11.86
2019-05-02T23:56:34.257Z,11.96
2019-05-02T23:59:04.212Z,11.62
